createdAt,value
2018-08-22T00:02:28.610Z,15.30
2018-08-22T00:04:57.833Z,12.40
2018-08-22T00:07:27.079Z,14.20
2018-08-22T00:09:56.299Z,14.33
2018-08-22T00:12:25.532Z,13.00
2018-08-22T00:14:54.759Z,15.80
2018-08-22T00:17:24.002Z,14.07
2018-08-22T00:19:53.254Z,13.50
2018-08-22T00:22:22.533Z,14.27
2018-08-22T00:24:51.758Z,14.77
2018-08-22T00:27:21.042Z,15.07
2018-08-22T00:30:03.386Z,15.48
2018-08-22T00:32:32.916Z,14.60
2018-08-22T00:35:02.374Z,14.03
2018-08-22T00:37:31.776Z,13.87
2018-08-22T00:40:01.166Z,15.97
2018-08-22T00:42:30.589Z,14.80
2018-08-22T00:45:00.119Z,13.10
2018-08-22T00:47:30.616Z,12.75
2018-08-22T00:50:00.032Z,13.13
2018-08-22T00:52:29.406Z,12.28
2018-08-22T00:54:58.834Z,13.23
2018-08-22T00:57:28.241Z,13.00
2018-08-22T00:59:57.606Z,14.23
2018-08-22T01:02:26.995Z,14.23
2018-08-22T01:04:56.331Z,13.63
2018-08-22T01:07:25.660Z,14.23
2018-08-22T01:09:54.977Z,14.17
2018-08-22T01:12:24.350Z,14.50
2018-08-22T01:14:53.646Z,13.90
2018-08-22T01:17:23.020Z,14.33
2018-08-22T01:19:52.352Z,13.87
2018-08-22T01:22:21.748Z,14.77
2018-08-22T01:24:51.141Z,14.47
2018-08-22T01:27:21.426Z,14.57
2018-08-22T01:29:52.710Z,13.63
2018-08-22T01:32:22.691Z,14.80
2018-08-22T01:34:52.959Z,14.35
2018-08-22T01:37:23.233Z,15.85
2018-08-22T01:39:52.578Z,14.23
2018-08-22T01:42:21.892Z,13.03
2018-08-22T01:44:51.233Z,13.67
2018-08-22T01:47:20.592Z,13.90
2018-08-22T01:49:49.938Z,15.37
2018-08-22T01:52:19.310Z,13.80
2018-08-22T01:54:48.754Z,14.50
2018-08-22T01:57:18.078Z,14.80
2018-08-22T01:59:47.447Z,15.43
2018-08-22T02:02:16.814Z,13.37
2018-08-22T02:04:46.171Z,15.30
2018-08-22T02:07:15.519Z,15.00
2018-08-22T02:09:44.912Z,14.60
2018-08-22T02:12:14.267Z,16.67
2018-08-22T02:14:43.635Z,14.30
2018-08-22T02:17:13.244Z,14.53
2018-08-22T02:19:42.647Z,14.03
2018-08-22T02:22:11.991Z,14.83
2018-08-22T02:24:41.370Z,14.57
2018-08-22T02:27:10.734Z,14.40
2018-08-22T02:29:40.088Z,19.00
2018-08-22T02:32:09.463Z,13.30
2018-08-22T02:34:38.888Z,14.50
2018-08-22T02:37:09.352Z,13.65
2018-08-22T02:39:38.687Z,16.43
2018-08-22T02:42:08.015Z,15.23
2018-08-22T02:44:37.359Z,14.78
2018-08-22T02:47:07.046Z,14.47
2018-08-22T02:49:36.366Z,14.07
2018-08-22T02:52:05.735Z,15.63
2018-08-22T02:54:35.076Z,14.00
2018-08-22T02:57:04.412Z,13.83
2018-08-22T02:59:33.725Z,15.77
2018-08-22T03:02:03.092Z,14.40
2018-08-22T03:04:32.430Z,14.97
2018-08-22T03:07:01.726Z,14.10
2018-08-22T03:09:31.112Z,13.83
2018-08-22T03:12:00.498Z,16.67
2018-08-22T03:14:29.883Z,14.23
2018-08-22T03:16:59.296Z,14.03
2018-08-22T03:19:28.607Z,15.77
2018-08-22T03:21:57.987Z,15.43
2018-08-22T03:24:27.303Z,14.33
2018-08-22T03:26:56.594Z,14.83
2018-08-22T03:29:25.911Z,15.77
2018-08-22T03:31:55.243Z,15.68
2018-08-22T03:34:24.615Z,15.23
2018-08-22T03:41:52.388Z,14.47
2018-08-22T03:44:21.619Z,14.83
2018-08-22T03:46:51.759Z,13.48
2018-08-22T03:49:20.990Z,15.23
2018-08-22T03:51:50.223Z,15.60
2018-08-22T03:54:19.506Z,14.97
2018-08-22T03:56:48.746Z,15.03
2018-08-22T03:59:17.967Z,14.90
2018-08-22T04:01:47.194Z,14.57
2018-08-22T04:04:16.431Z,14.93
2018-08-22T04:06:45.695Z,18.17
2018-08-22T04:09:14.929Z,16.13
2018-08-22T04:11:44.182Z,14.40
2018-08-22T04:14:13.424Z,15.87
2018-08-22T04:16:42.651Z,13.87
2018-08-22T04:19:13.756Z,15.20
2018-08-22T04:21:43.026Z,15.93
2018-08-22T04:24:12.267Z,16.63
2018-08-22T04:26:41.510Z,16.03
2018-08-22T04:29:10.757Z,14.57
2018-08-22T04:31:40.005Z,15.30
2018-08-22T04:34:09.244Z,14.70
2018-08-22T04:36:38.503Z,15.43
2018-08-22T04:39:09.083Z,15.93
2018-08-22T04:41:38.319Z,13.83
2018-08-22T04:44:07.537Z,14.00
2018-08-22T04:46:36.790Z,15.37
2018-08-22T04:49:06.033Z,13.50
2018-08-22T04:51:35.279Z,17.23
2018-08-22T04:54:04.516Z,12.90
2018-08-22T04:56:33.752Z,13.70
2018-08-22T04:59:03.062Z,12.57
2018-08-22T05:01:32.319Z,15.57
2018-08-22T05:04:01.543Z,13.07
2018-08-22T05:06:30.790Z,13.00
2018-08-22T05:09:00.024Z,13.20
2018-08-22T05:11:29.266Z,14.17
2018-08-22T05:13:58.503Z,13.87
2018-08-22T05:16:27.731Z,13.30
2018-08-22T05:18:56.984Z,12.93
2018-08-22T05:21:26.227Z,14.00
2018-08-22T05:23:55.610Z,11.97
2018-08-22T05:26:24.867Z,13.53
2018-08-22T05:28:54.087Z,18.90
2018-08-22T05:31:23.324Z,15.40
2018-08-22T05:33:52.564Z,12.50
2018-08-22T05:36:21.811Z,13.53
2018-08-22T05:38:51.147Z,12.33
2018-08-22T05:41:20.376Z,11.63
2018-08-22T05:43:49.615Z,12.20
2018-08-22T05:46:18.875Z,11.95
2018-08-22T05:48:48.102Z,10.10
2018-08-22T05:51:17.326Z,10.30
2018-08-22T05:53:46.563Z,10.83
2018-08-22T05:56:15.794Z,11.17
2018-08-22T05:58:45.033Z,11.25
2018-08-22T06:01:14.267Z,13.28
2018-08-22T06:03:43.503Z,12.23
2018-08-22T06:06:12.751Z,12.00
2018-08-22T06:08:42.001Z,11.87
2018-08-22T06:11:11.215Z,11.25
2018-08-22T06:13:40.452Z,11.55
2018-08-22T06:16:09.740Z,12.53
2018-08-22T06:18:38.963Z,11.10
2018-08-22T06:21:08.195Z,12.98
2018-08-22T06:23:37.450Z,11.33
2018-08-22T06:26:06.788Z,11.88
2018-08-22T06:28:36.011Z,10.97
2018-08-22T06:31:05.295Z,11.50
2018-08-22T06:33:34.540Z,11.78
2018-08-22T06:36:03.754Z,10.45
2018-08-22T06:38:33.010Z,10.70
2018-08-22T06:41:02.236Z,10.73
2018-08-22T06:43:31.479Z,10.27
2018-08-22T06:46:00.726Z,13.03
2018-08-22T06:48:29.983Z,11.25
2018-08-22T06:50:59.255Z,10.93
2018-08-22T06:53:28.491Z,11.97
2018-08-22T06:55:57.716Z,12.03
2018-08-22T06:58:26.945Z,11.53
2018-08-22T07:00:56.174Z,11.12
2018-08-22T07:03:25.427Z,10.97
2018-08-22T07:05:54.696Z,11.07
2018-08-22T07:08:23.926Z,11.90
2018-08-22T07:10:54.405Z,10.63
2018-08-22T07:13:23.671Z,10.45
2018-08-22T07:15:52.907Z,10.27
2018-08-22T07:18:22.150Z,11.22
2018-08-22T07:20:51.438Z,9.85
2018-08-22T07:23:20.615Z,9.95
2018-08-22T07:25:49.856Z,10.25
2018-08-22T07:28:19.116Z,10.50
2018-08-22T07:30:48.374Z,10.93
2018-08-22T07:33:17.617Z,9.38
2018-08-22T07:35:46.942Z,9.08
2018-08-22T07:38:16.114Z,10.50
2018-08-22T07:40:45.350Z,9.37
2018-08-22T07:43:15.059Z,8.93
2018-08-22T07:45:44.342Z,10.08
2018-08-22T07:48:13.816Z,8.75
2018-08-22T07:50:43.027Z,9.00
2018-08-22T07:53:12.283Z,11.33
2018-08-22T07:55:42.737Z,9.13
2018-08-22T07:58:12.219Z,8.58
2018-08-22T08:00:41.448Z,10.05
2018-08-22T08:03:10.699Z,8.63
2018-08-22T08:05:39.936Z,8.10
2018-08-22T08:08:10.153Z,8.63
2018-08-22T08:10:39.406Z,10.13
2018-08-22T08:13:16.003Z,9.30
2018-08-22T08:15:45.519Z,8.82
2018-08-22T08:18:14.730Z,8.98
2018-08-22T08:20:43.989Z,8.80
2018-08-22T08:23:13.227Z,8.90
2018-08-22T08:25:42.449Z,9.65
2018-08-22T08:28:11.695Z,8.48
2018-08-22T08:30:40.946Z,8.70
2018-08-22T08:33:10.151Z,8.57
2018-08-22T08:35:39.431Z,9.60
2018-08-22T08:38:08.617Z,8.78
2018-08-22T08:40:37.864Z,8.78
2018-08-22T08:43:07.095Z,8.85
2018-08-22T08:45:36.964Z,10.13
2018-08-22T08:48:06.195Z,10.07
2018-08-22T08:50:35.431Z,9.63
2018-08-22T08:53:04.697Z,9.33
2018-08-22T08:55:33.938Z,11.38
2018-08-22T08:58:03.270Z,9.77
2018-08-22T09:00:32.502Z,8.00
2018-08-22T09:03:01.728Z,8.60
2018-08-22T09:05:30.974Z,10.35
2018-08-22T09:08:00.215Z,9.75
2018-08-22T09:10:29.447Z,8.87
2018-08-22T09:12:58.667Z,8.93
2018-08-22T09:15:27.918Z,11.35
2018-08-22T09:17:57.155Z,7.95
2018-08-22T09:20:26.388Z,8.75
2018-08-22T09:22:55.622Z,9.20
2018-08-22T09:25:24.839Z,8.83
2018-08-22T09:27:54.076Z,8.73
2018-08-22T09:30:23.499Z,9.53
2018-08-22T09:32:52.735Z,8.45
2018-08-22T09:35:21.979Z,8.37
2018-08-22T09:37:51.234Z,8.97
2018-08-22T09:40:20.465Z,8.58
2018-08-22T09:42:49.713Z,8.13
2018-08-22T09:45:18.960Z,8.60
2018-08-22T09:47:48.222Z,10.13
2018-08-22T09:50:17.471Z,8.40
2018-08-22T09:52:47.960Z,8.18
2018-08-22T09:55:17.214Z,8.33
2018-08-22T09:57:46.459Z,8.13
2018-08-22T10:00:22.342Z,8.73
2018-08-22T10:02:51.591Z,8.20
2018-08-22T10:05:20.815Z,8.15
2018-08-22T10:07:50.027Z,8.03
2018-08-22T10:10:19.272Z,8.40
2018-08-22T10:12:48.517Z,7.70
2018-08-22T10:15:17.747Z,7.67
2018-08-22T10:17:47.126Z,8.08
2018-08-22T10:20:16.384Z,9.60
2018-08-22T10:22:45.608Z,7.05
2018-08-22T10:25:15.004Z,7.77
2018-08-22T10:27:44.216Z,9.00
2018-08-22T10:30:13.447Z,7.42
2018-08-22T10:32:42.742Z,7.58
2018-08-22T10:35:11.963Z,7.78
2018-08-22T10:37:41.202Z,7.73
2018-08-22T10:40:10.443Z,7.75
2018-08-22T10:42:39.672Z,7.62
2018-08-22T10:45:08.930Z,7.47
2018-08-22T10:47:38.154Z,9.15
2018-08-22T10:50:07.408Z,7.10
2018-08-22T10:52:36.900Z,7.47
2018-08-22T10:55:06.131Z,6.95
2018-08-22T10:57:35.388Z,7.05
2018-08-22T11:00:04.645Z,7.40
2018-08-22T11:02:33.899Z,7.30
2018-08-22T11:05:03.121Z,7.23
2018-08-22T11:07:33.390Z,7.70
2018-08-22T11:10:02.648Z,9.30
2018-08-22T11:12:31.863Z,7.17
2018-08-22T11:15:01.091Z,6.93
2018-08-22T11:17:30.346Z,7.85
2018-08-22T11:19:59.543Z,7.00
2018-08-22T11:22:45.579Z,8.33
2018-08-22T11:25:31.691Z,8.63
2018-08-22T11:28:17.798Z,7.40
2018-08-22T11:31:04.001Z,6.78
2018-08-22T11:33:50.220Z,7.97
2018-08-22T11:36:17.927Z,7.23
2018-08-22T11:38:47.166Z,8.67
2018-08-22T11:41:16.403Z,7.45
2018-08-22T11:43:45.657Z,6.87
2018-08-22T11:46:14.895Z,6.90
2018-08-22T11:48:44.134Z,6.50
2018-08-22T11:51:13.439Z,7.17
2018-08-22T11:53:43.919Z,6.87
2018-08-22T11:56:13.180Z,7.03
2018-08-22T11:58:42.403Z,7.60
2018-08-22T12:01:11.863Z,7.58
2018-08-22T12:03:41.096Z,8.33
2018-08-22T12:06:10.339Z,6.87
2018-08-22T12:08:39.571Z,7.97
2018-08-22T12:11:08.819Z,7.33
2018-08-22T12:13:38.035Z,6.87
2018-08-22T12:16:07.318Z,7.60
2018-08-22T12:18:36.557Z,7.55
2018-08-22T12:21:05.790Z,7.50
2018-08-22T12:23:35.035Z,8.83
2018-08-22T12:26:05.945Z,7.27
2018-08-22T12:28:35.213Z,8.45
2018-08-22T12:31:04.509Z,10.30
2018-08-22T12:33:33.720Z,7.15
2018-08-22T12:36:02.943Z,9.80
2018-08-22T12:38:32.436Z,6.73
2018-08-22T12:41:01.659Z,7.22
2018-08-22T12:43:30.899Z,7.65
2018-08-22T12:46:00.199Z,7.10
2018-08-22T12:48:29.431Z,8.10
2018-08-22T12:50:58.671Z,7.80
2018-08-22T12:53:28.127Z,7.55
2018-08-22T12:55:57.387Z,8.63
2018-08-22T12:58:26.646Z,7.75
2018-08-22T13:00:55.866Z,7.63
2018-08-22T13:03:25.115Z,7.77
2018-08-22T13:05:54.351Z,7.90
2018-08-22T13:08:23.594Z,8.98
2018-08-22T13:10:52.832Z,7.55
2018-08-22T13:13:22.064Z,7.70
2018-08-22T13:15:51.333Z,12.23
2018-08-22T13:18:20.570Z,9.80
2018-08-22T13:20:49.807Z,8.00
2018-08-22T13:23:19.049Z,7.42
2018-08-22T13:25:48.307Z,7.90
2018-08-22T13:28:17.607Z,6.87
2018-08-22T13:30:47.038Z,7.80
2018-08-22T13:33:16.279Z,8.28
2018-08-22T13:35:45.518Z,7.03
2018-08-22T13:38:14.823Z,6.67
2018-08-22T13:40:44.067Z,7.40
2018-08-22T13:43:13.360Z,7.40
2018-08-22T13:45:42.595Z,7.08
2018-08-22T13:48:11.831Z,7.07
2018-08-22T13:50:41.064Z,6.73
2018-08-22T13:53:10.295Z,6.95
2018-08-22T13:55:39.602Z,6.65
2018-08-22T13:58:08.878Z,6.87
2018-08-22T14:00:38.144Z,7.10
2018-08-22T14:03:07.379Z,6.67
2018-08-22T14:05:36.627Z,8.23
2018-08-22T14:08:05.903Z,7.58
2018-08-22T14:10:35.308Z,6.72
2018-08-22T14:13:04.572Z,6.90
2018-08-22T14:15:33.802Z,6.47
2018-08-22T14:18:03.101Z,6.70
2018-08-22T14:20:32.371Z,6.50
2018-08-22T14:23:01.705Z,6.20
2018-08-22T14:25:30.960Z,7.67
2018-08-22T14:28:00.300Z,6.93
2018-08-22T14:30:30.768Z,6.67
2018-08-22T14:33:00.023Z,6.50
2018-08-22T14:35:29.291Z,7.13
2018-08-22T14:37:58.805Z,6.30
2018-08-22T14:40:28.078Z,6.75
2018-08-22T14:42:57.344Z,6.70
2018-08-22T14:45:26.563Z,6.70
2018-08-22T14:47:56.072Z,10.03
2018-08-22T14:50:25.347Z,6.33
2018-08-22T14:52:54.573Z,5.97
2018-08-22T14:55:23.810Z,5.83
2018-08-22T14:57:53.050Z,7.70
2018-08-22T15:00:22.296Z,6.50
2018-08-22T15:02:51.686Z,7.58
2018-08-22T15:05:20.750Z,7.05
2018-08-22T15:07:49.992Z,7.67
2018-08-22T15:10:19.501Z,7.47
2018-08-22T15:12:49.111Z,6.83
2018-08-22T15:15:18.289Z,6.97
2018-08-22T15:17:47.529Z,9.90
2018-08-22T15:20:16.787Z,6.53
2018-08-22T15:22:46.034Z,6.63
2018-08-22T15:25:15.258Z,6.60
2018-08-22T15:27:44.519Z,6.97
2018-08-22T15:30:13.792Z,6.78
2018-08-22T15:32:43.033Z,6.90
2018-08-22T15:35:12.256Z,7.37
2018-08-22T15:37:41.499Z,6.57
2018-08-22T15:40:10.730Z,7.40
2018-08-22T15:42:39.970Z,7.47
2018-08-22T15:45:09.197Z,7.00
2018-08-22T15:47:38.505Z,7.63
2018-08-22T15:50:07.707Z,8.23
2018-08-22T15:52:36.993Z,7.03
2018-08-22T15:55:14.289Z,7.33
2018-08-22T15:58:03.791Z,7.72
2018-08-22T16:00:56.041Z,8.10
2018-08-22T16:03:26.884Z,10.93
2018-08-22T16:05:56.740Z,10.98
2018-08-22T16:08:27.205Z,8.37
2018-08-22T16:10:56.454Z,14.33
2018-08-22T16:13:28.731Z,9.63
2018-08-22T16:16:00.392Z,9.10
2018-08-22T16:18:31.047Z,11.18
2018-08-22T16:21:01.686Z,8.95
2018-08-22T16:23:33.239Z,11.70
2018-08-22T16:26:03.339Z,12.03
2018-08-22T16:28:51.036Z,13.83
2018-08-22T16:31:20.789Z,11.95
2018-08-22T16:33:50.024Z,9.13
2018-08-22T16:36:24.508Z,9.57
2018-08-22T16:38:53.874Z,9.30
2018-08-22T16:41:23.121Z,8.25
2018-08-22T16:43:52.363Z,9.30
2018-08-22T16:46:21.614Z,14.78
2018-08-22T16:48:53.532Z,9.87
2018-08-22T16:51:23.564Z,10.27
2018-08-22T16:53:59.493Z,10.75
2018-08-22T16:56:29.984Z,10.38
2018-08-22T16:59:03.293Z,10.35
2018-08-22T17:01:32.588Z,8.78
2018-08-22T17:04:01.835Z,11.15
2018-08-22T17:06:31.077Z,9.18
2018-08-22T17:09:00.622Z,10.93
2018-08-22T17:11:29.871Z,11.78
2018-08-22T17:13:59.120Z,10.38
2018-08-22T17:16:28.359Z,11.10
2018-08-22T17:18:57.655Z,11.30
2018-08-22T17:21:26.889Z,10.03
2018-08-22T17:23:56.169Z,10.23
2018-08-22T17:26:25.623Z,11.33
2018-08-22T17:28:56.652Z,12.90
2018-08-22T17:31:27.325Z,13.13
2018-08-22T17:33:59.674Z,10.07
2018-08-22T17:36:28.939Z,12.70
2018-08-22T17:39:00.449Z,14.03
2018-08-22T17:41:30.476Z,11.20
2018-08-22T17:44:11.883Z,9.33
2018-08-22T17:46:44.975Z,11.35
2018-08-22T17:49:14.231Z,11.33
2018-08-22T17:52:03.310Z,10.50
2018-08-22T17:54:32.570Z,9.10
2018-08-22T17:57:16.779Z,10.40
2018-08-22T17:59:46.024Z,10.90
2018-08-22T18:02:15.269Z,8.38
2018-08-22T18:05:00.037Z,7.70
2018-08-22T18:07:29.320Z,15.57
2018-08-22T18:09:58.571Z,11.57
2018-08-22T18:12:28.452Z,9.08
2018-08-22T18:14:59.420Z,9.07
2018-08-22T18:17:28.695Z,11.68
2018-08-22T18:19:57.948Z,10.68
2018-08-22T18:22:31.581Z,12.18
2018-08-22T18:25:00.808Z,11.00
2018-08-22T18:27:30.086Z,12.90
2018-08-22T18:29:59.291Z,11.47
2018-08-22T18:32:28.537Z,11.22
2018-08-22T18:35:09.789Z,9.75
2018-08-22T18:37:39.566Z,10.90
2018-08-22T18:40:17.415Z,9.00
2018-08-22T18:42:51.213Z,9.25
2018-08-22T18:45:20.952Z,10.60
2018-08-22T18:47:50.214Z,11.30
2018-08-22T18:50:19.705Z,9.45
2018-08-22T18:52:51.470Z,14.83
2018-08-22T18:55:25.304Z,9.27
2018-08-22T18:57:55.188Z,9.20
2018-08-22T19:00:24.997Z,9.30
2018-08-22T19:02:55.616Z,10.82
2018-08-22T19:05:31.447Z,9.63
2018-08-22T19:08:17.781Z,10.23
2018-08-22T19:10:49.922Z,10.43
2018-08-22T19:13:21.259Z,9.33
2018-08-22T19:15:53.905Z,9.85
2018-08-22T19:18:23.182Z,9.08
2018-08-22T19:20:55.286Z,10.83
2018-08-22T19:23:24.625Z,10.87
2018-08-22T19:25:54.437Z,12.33
2018-08-22T19:28:23.700Z,10.80
2018-08-22T19:30:52.957Z,11.15
2018-08-22T19:33:24.203Z,13.53
2018-08-22T19:35:53.685Z,10.67
2018-08-22T19:38:25.023Z,12.30
2018-08-22T19:40:54.419Z,13.20
2018-08-22T19:43:23.717Z,11.22
2018-08-22T19:45:52.901Z,10.20
2018-08-22T19:48:22.357Z,10.57
2018-08-22T19:50:51.599Z,10.43
2018-08-22T19:53:21.544Z,10.60
2018-08-22T19:55:50.806Z,9.80
2018-08-22T19:58:28.008Z,11.20
2018-08-22T20:00:58.535Z,11.68
2018-08-22T20:03:32.070Z,10.43
2018-08-22T20:06:01.296Z,12.00
2018-08-22T20:08:38.628Z,13.97
2018-08-22T20:11:08.186Z,11.10
2018-08-22T20:13:50.408Z,12.40
2018-08-22T20:16:20.845Z,11.90
2018-08-22T20:18:55.073Z,11.10
2018-08-22T20:21:32.296Z,12.20
2018-08-22T20:24:02.429Z,11.75
2018-08-22T20:26:32.158Z,13.58
2018-08-22T20:29:02.519Z,11.43
2018-08-22T20:31:32.121Z,11.27
2018-08-22T20:34:15.715Z,10.67
2018-08-22T20:36:46.735Z,12.80
2018-08-22T20:39:16.164Z,13.60
2018-08-22T20:41:45.627Z,11.10
2018-08-22T20:44:20.713Z,11.55
2018-08-22T20:46:50.363Z,11.36
2018-08-22T20:49:20.618Z,12.13
2018-08-22T20:51:49.918Z,13.80
2018-08-22T20:54:21.760Z,11.17
2018-08-22T20:56:56.032Z,17.13
2018-08-22T20:59:25.301Z,11.33
2018-08-22T21:02:04.415Z,13.90
2018-08-22T21:04:34.192Z,14.35
2018-08-22T21:07:03.768Z,12.78
2018-08-22T21:09:33.224Z,11.85
2018-08-22T21:12:02.464Z,11.63
2018-08-22T21:14:31.781Z,11.13
2018-08-22T21:17:01.039Z,11.95
2018-08-22T21:19:30.235Z,11.93
2018-08-22T21:21:59.599Z,12.65
2018-08-22T21:24:28.859Z,11.90
2018-08-22T21:26:58.091Z,11.43
2018-08-22T21:29:27.363Z,11.97
2018-08-22T21:31:56.612Z,12.37
2018-08-22T21:34:25.855Z,11.70
2018-08-22T21:36:55.090Z,11.47
2018-08-22T21:39:25.564Z,13.77
2018-08-22T21:41:54.964Z,11.90
2018-08-22T21:44:24.508Z,11.28
2018-08-22T21:46:59.975Z,11.20
2018-08-22T21:49:29.627Z,14.40
2018-08-22T21:52:00.521Z,13.07
2018-08-22T21:54:30.357Z,12.03
2018-08-22T21:56:59.627Z,11.13
2018-08-22T21:59:29.196Z,12.02
2018-08-22T22:02:03.668Z,11.75
2018-08-22T22:04:32.919Z,13.60
2018-08-22T22:07:02.752Z,11.33
2018-08-22T22:09:32.007Z,11.90
2018-08-22T22:12:02.006Z,11.97
2018-08-22T22:14:34.004Z,12.20
2018-08-22T22:17:03.966Z,11.57
2018-08-22T22:19:34.415Z,12.50
2018-08-22T22:22:04.092Z,12.85
2018-08-22T22:24:34.158Z,12.63
2018-08-22T22:27:03.398Z,12.63
2018-08-22T22:29:33.490Z,12.33
2018-08-22T22:32:02.752Z,12.10
2018-08-22T22:34:31.994Z,12.30
2018-08-22T22:37:01.228Z,12.23
2018-08-22T22:39:40.760Z,12.84
2018-08-22T22:42:42.971Z,13.77
2018-08-22T22:45:12.208Z,11.80
2018-08-22T22:47:41.475Z,13.03
2018-08-22T22:50:10.719Z,12.60
2018-08-22T22:52:45.059Z,13.03
2018-08-22T22:55:14.504Z,13.00
2018-08-22T22:57:44.446Z,14.93
2018-08-22T23:00:15.288Z,14.38
2018-08-22T23:02:45.324Z,13.20
2018-08-22T23:05:14.574Z,12.35
2018-08-22T23:07:43.839Z,12.87
2018-08-22T23:10:14.174Z,12.57
2018-08-22T23:12:45.372Z,13.05
2018-08-22T23:15:18.900Z,12.35
2018-08-22T23:17:50.738Z,12.63
2018-08-22T23:20:24.438Z,14.60
2018-08-22T23:22:53.752Z,12.93
2018-08-22T23:25:23.319Z,12.93
2018-08-22T23:27:52.572Z,14.17
2018-08-22T23:30:37.008Z,13.50
2018-08-22T23:33:07.119Z,13.73
2018-08-22T23:35:36.911Z,13.30
2018-08-22T23:38:09.390Z,14.47
2018-08-22T23:40:40.159Z,14.78
2018-08-22T23:43:09.395Z,13.08
2018-08-22T23:45:38.663Z,13.07
2018-08-22T23:48:07.919Z,12.47
2018-08-22T23:50:49.388Z,14.35
2018-08-22T23:53:18.619Z,13.10
2018-08-22T23:55:47.871Z,14.85
2018-08-22T23:58:17.161Z,13.72
